Time;durP1;ratioP1;P1;durP2;ratioP2;P2;SDS_P1;SDS_P2;PMS_P1;PMS_P2;Temp;Humidity;BMP_temperature;BMP_pressure;BME280_temperature;BME280_humidity;BME280_pressure;Samples;Min_cycle;Max_cycle;Signal;HPM_P1;HPM_P2
2021/12/13 00:02:29;;;;;;;109.35;58.63;;;;;;;0.13;100.00;100391.22;5035433;28;20778;-83
2021/12/13 00:05:05;;;;;;;98.95;58.00;;;;;;;0.04;100.00;100383.44;5035595;28;20250;-83
2021/12/13 00:07:35;;;;;;;101.25;59.00;;;;;;;0.04;100.00;100374.03;5035679;28;20037;-83
2021/12/13 00:10:13;;;;;;;98.93;61.87;;;;;;;0.05;100.00;100373.22;5035704;28;20028;-83
2021/12/13 00:12:43;;;;;;;104.40;58.88;;;;;;;0.11;100.00;100387.78;5035600;28;20270;-82
2021/12/13 00:15:17;;;;;;;104.73;61.40;;;;;;;0.15;100.00;100405.72;5051943;28;20055;-83
2021/12/13 00:17:50;;;;;;;113.53;63.30;;;;;;;0.06;100.00;100379.19;5035502;28;20263;-82
2021/12/13 00:20:41;;;;;;;106.55;60.70;;;;;;;0.15;100.00;100392.06;5051996;28;20484;-83
2021/12/13 00:23:21;;;;;;;;;;;;;;;0.20;100.00;100400.63;5035522;28;20041;-82
2021/12/13 00:25:51;;;;;;;108.10;61.87;;;;;;;0.19;100.00;100398.94;5051560;28;19919;-84
2021/12/13 00:28:21;;;;;;;105.97;60.90;;;;;;;0.11;100.00;100374.97;5035070;28;20100;-81
2021/12/13 00:31:01;;;;;;;104.13;63.97;;;;;;;0.23;100.00;100396.41;5052079;28;20036;-82
2021/12/13 00:33:52;;;;;;;105.15;62.28;;;;;;;0.23;100.00;100398.13;5038713;28;20392;-83
2021/12/13 00:36:31;;;;;;;117.28;66.15;;;;;;;0.21;100.00;100390.44;5054333;28;20037;-82
2021/12/13 00:39:06;;;;;;;128.38;67.88;;;;;;;0.15;100.00;100374.16;5054442;28;20029;-84
2021/12/13 00:41:35;;;;;;;110.55;62.75;;;;;;;0.19;100.00;100388.69;5054220;28;20033;-83
2021/12/13 00:44:12;;;;;;;108.13;64.13;;;;;;;0.11;100.00;100377.53;5053760;28;20045;-82
2021/12/13 00:46:40;;;;;;;120.05;64.90;;;;;;;0.15;100.00;100397.19;5054428;28;20055;-82
2021/12/13 00:49:10;;;;;;;111.70;61.38;;;;;;;0.26;100.00;100407.53;5052675;28;20033;-83
2021/12/13 00:51:56;;;;;;;105.80;63.97;;;;;;;0.27;100.00;100424.63;5060854;28;20438;-83
2021/12/13 00:54:33;;;;;;;111.95;63.42;;;;;;;0.26;100.00;100404.97;5063295;28;20278;-82
2021/12/13 00:56:59;;;;;;;112.45;66.07;;;;;;;0.24;100.00;100400.69;5064024;28;20427;-82
2021/12/13 00:59:32;;;;;;;98.63;59.15;;;;;;;0.17;100.00;100398.06;5061049;28;20071;-81
2021/12/13 01:02:24;;;;;;;107.80;62.22;;;;;;;0.06;100.00;100376.66;5063580;28;20479;-82
2021/12/13 01:05:07;;;;;;;101.18;63.30;;;;;;;0.31;100.00;100422.09;5061216;28;20047;-82
2021/12/13 01:07:33;;;;;;;108.03;63.25;;;;;;;0.33;100.00;100425.50;5062952;28;20028;-81
2021/12/13 01:10:17;;;;;;;112.55;64.05;;;;;;;0.34;100.00;100419.56;5061811;28;20032;-82
2021/12/13 01:12:46;;;;;;;110.68;62.25;;;;;;;0.31;100.00;100418.66;5064089;28;20013;-82
2021/12/13 01:15:28;;;;;;;110.55;65.15;;;;;;;0.18;100.00;100399.78;5062139;28;20033;-82
2021/12/13 01:21:17;;;;;;;110.57;60.47;;;;;;;0.35;100.00;100413.56;5061624;28;20033;-83
2021/12/13 01:23:49;;;;;;;105.57;62.45;;;;;;;0.36;100.00;100417.84;5061440;28;20021;-82
2021/12/13 01:26:37;;;;;;;114.18;66.82;;;;;;;0.38;100.00;100418.72;5061267;28;20037;-82
2021/12/13 01:29:11;;;;;;;105.72;59.70;;;;;;;0.42;100.00;100422.16;5058708;28;20536;-81
2021/12/13 01:31:41;;;;;;;103.82;62.25;;;;;;;0.41;100.00;100416.16;5058788;28;20041;-80
2021/12/13 01:34:09;;;;;;;102.38;62.38;;;;;;;0.35;100.00;100400.75;5050771;28;20060;-81
2021/12/13 01:36:42;;;;;;;100.93;60.63;;;;;;;0.45;100.00;100415.34;5050640;28;20037;-81
2021/12/13 01:39:20;;;;;;;97.78;58.58;;;;;;;0.39;100.00;100396.53;5064648;28;20036;-82
2021/12/13 01:41:53;;;;;;;102.20;62.72;;;;;;;0.38;100.00;100403.34;5038509;28;20036;-80
2021/12/13 01:44:26;;;;;;;101.05;60.55;;;;;;;0.48;100.00;100405.13;5070002;28;20611;-80
2021/12/13 01:46:56;;;;;;;102.65;62.35;;;;;;;0.45;100.00;100399.97;5052217;28;20119;-81
2021/12/13 01:49:32;;;;;;;104.60;60.55;;;;;;;0.41;100.00;100405.06;5068135;28;20032;-80
2021/12/13 01:51:59;;;;;;;103.47;61.05;;;;;;;0.53;100.00;100417.97;5060034;28;20032;-80
2021/12/13 01:54:25;;;;;;;108.28;61.53;;;;;;;0.47;100.00;100408.53;5058385;28;20040;-80
2021/12/13 01:59:49;;;;;;;99.20;59.40;;;;;;;0.46;100.00;100396.56;5062378;28;20079;-80
2021/12/13 02:02:22;;;;;;;106.68;61.30;;;;;;;0.58;100.00;100412.88;5058319;28;20498;-81
2021/12/13 02:05:11;;;;;;;99.22;62.13;;;;;;;0.57;100.00;100411.16;5062271;28;20119;-81
2021/12/13 02:07:39;;;;;;;102.90;62.47;;;;;;;0.62;100.00;100418.00;5061955;28;20019;-82
2021/12/13 02:10:11;;;;;;;109.38;68.60;;;;;;;0.58;100.00;100406.03;5061757;28;20102;-82
2021/12/13 02:12:40;;;;;;;109.18;64.10;;;;;;;0.43;100.00;100370.06;5060765;28;20074;-81
2021/12/13 02:17:52;;;;;;;94.07;55.80;;;;;;;0.60;100.00;100408.63;5061771;28;20110;-80
2021/12/13 02:20:26;;;;;;;94.80;55.85;;;;;;;0.55;100.00;100400.91;5058770;28;20115;-80
2021/12/13 02:22:55;;;;;;;101.07;59.17;;;;;;;0.60;100.00;100404.34;5061498;28;20027;-81
2021/12/13 02:25:29;;;;;;;96.45;57.10;;;;;;;0.54;100.00;100395.75;5061402;28;20029;-82
2021/12/13 02:28:03;;;;;;;96.55;55.35;;;;;;;0.70;100.00;100425.75;5060324;28;20514;-80
2021/12/13 02:30:54;;;;;;;100.50;57.20;;;;;;;0.68;100.00;100412.94;5059025;28;20028;-80
2021/12/13 02:33:26;;;;;;;94.68;55.40;;;;;;;0.65;100.00;100418.03;5059998;28;20501;-80
2021/12/13 02:36:03;;;;;;;103.43;59.30;;;;;;;0.67;100.00;100406.06;5060118;28;20021;-82
2021/12/13 02:38:29;;;;;;;98.68;59.65;;;;;;;0.68;100.00;100405.25;5058813;28;20518;-80
2021/12/13 02:40:56;;;;;;;109.38;61.95;;;;;;;0.71;100.00;100409.50;5061920;28;20444;-81
2021/12/13 02:43:28;;;;;;;100.25;58.38;;;;;;;0.66;100.00;100406.06;5058940;28;20021;-80
2021/12/13 02:45:56;;;;;;;107.85;62.50;;;;;;;0.71;100.00;100417.22;5059793;28;20350;-81
2021/12/13 02:48:43;;;;;;;105.93;59.78;;;;;;;0.53;100.00;100394.03;5060635;28;20456;-80
2021/12/13 02:51:22;;;;;;;111.90;64.03;;;;;;;0.65;100.00;100399.25;5061250;28;20036;-80
2021/12/13 02:54:03;;;;;;;96.10;59.92;;;;;;;0.69;100.00;100404.38;5060517;28;20020;-81
2021/12/13 02:56:35;;;;;;;98.95;59.70;;;;;;;0.58;100.00;100387.22;5060181;28;20027;-81
2021/12/13 02:59:02;;;;;;;111.38;60.50;;;;;;;0.65;100.00;100401.81;5060230;28;20082;-81
2021/12/13 03:02:09;;;;;;;108.18;61.17;;;;;;;0.70;100.00;100405.25;5059587;28;20104;-81
2021/12/13 03:04:35;;;;;;;105.38;64.07;;;;;;;0.71;100.00;100407.81;5042248;28;20037;-81
2021/12/13 03:07:06;;;;;;;111.57;65.07;;;;;;;0.72;100.00;100412.09;5057441;28;20037;-81
2021/12/13 03:09:34;;;;;;;117.38;66.53;;;;;;;0.63;100.00;100393.22;5042553;28;20044;-81
2021/12/13 03:12:05;;;;;;;107.15;65.10;;;;;;;0.62;100.00;100388.97;5056945;28;20567;-81
2021/12/13 03:14:38;;;;;;;111.65;63.45;;;;;;;0.71;100.00;100417.22;5057415;28;20024;-82
2021/12/13 03:17:28;;;;;;;115.28;65.70;;;;;;;0.74;100.00;100419.78;5051779;28;20021;-81
2021/12/13 03:20:18;;;;;;;113.50;66.90;;;;;;;0.74;100.00;100430.06;4999283;28;20034;-81
2021/12/13 03:23:21;;;;;;;118.93;67.47;;;;;;;0.75;100.00;100434.31;5020759;28;20018;-81
2021/12/13 03:26:05;;;;;;;115.03;67.05;;;;;;;0.75;100.00;100427.47;5009628;28;20335;-81
2021/12/13 03:29:05;;;;;;;116.97;69.80;;;;;;;0.68;100.00;100423.19;4999980;28;20432;-82
2021/12/13 03:31:38;;;;;;;124.38;69.63;;;;;;;0.67;100.00;100430.84;4949663;29;20125;-83
2021/12/13 03:34:10;;;;;;;111.93;66.53;;;;;;;0.59;100.00;100415.44;4947787;29;20032;-82
2021/12/13 03:36:54;;;;;;;121.85;67.40;;;;;;;0.71;100.00;100435.16;4933614;29;20035;-82
2021/12/13 03:39:29;;;;;;;128.00;72.53;;;;;;;0.65;100.00;100432.56;4938900;29;20027;-83
2021/12/13 03:41:57;;;;;;;131.65;77.40;;;;;;;0.60;100.00;100419.72;4935342;29;20396;-82
2021/12/13 03:44:29;;;;;;;130.52;71.40;;;;;;;0.61;100.00;100421.44;4930019;29;20052;-83
2021/12/13 03:47:03;;;;;;;114.90;65.20;;;;;;;0.68;100.00;100435.16;4914102;29;20047;-82
2021/12/13 03:49:30;;;;;;;124.80;68.82;;;;;;;0.65;100.00;100424.88;4913063;29;20040;-82
2021/12/13 03:51:58;;;;;;;145.18;74.82;;;;;;;0.67;100.00;100434.28;4930460;29;20365;-82
2021/12/13 03:54:26;;;;;;;130.55;74.85;;;;;;;0.55;100.00;100413.72;4930313;29;21152;-82
2021/12/13 03:56:54;;;;;;;174.48;90.25;;;;;;;0.61;100.00;100416.31;4944010;28;20026;-82
2021/12/13 03:59:22;;;;;;;176.25;85.80;;;;;;;0.57;100.00;100412.00;5001615;28;20030;-81
2021/12/13 04:01:52;;;;;;;151.15;78.18;;;;;;;0.69;100.00;100432.59;4985547;28;20424;-89
2021/12/13 04:04:35;;;;;;;166.23;81.18;;;;;;;0.69;100.00;100427.47;5012468;28;20033;-81
2021/12/13 04:07:14;;;;;;;171.38;82.03;;;;;;;0.71;100.00;100430.03;5013840;28;20092;-81
2021/12/13 04:09:42;;;;;;;149.88;74.35;;;;;;;0.69;100.00;100427.47;5053683;28;20025;-82
2021/12/13 04:12:09;;;;;;;185.93;85.43;;;;;;;0.72;100.00;100431.75;5054871;28;20021;-81
2021/12/13 04:14:42;;;;;;;164.23;81.07;;;;;;;0.65;100.00;100422.31;5054448;28;20558;-81
2021/12/13 04:17:34;;;;;;;147.15;78.03;;;;;;;0.66;100.00;100419.75;5054938;28;20060;-82
2021/12/13 04:20:02;;;;;;;145.10;73.30;;;;;;;0.74;100.00;100435.19;5053502;28;20127;-82
2021/12/13 04:22:32;;;;;;;129.48;72.88;;;;;;;0.70;100.00;100426.59;5054377;28;20469;-81
2021/12/13 04:25:03;;;;;;;125.40;69.78;;;;;;;0.75;100.00;100440.31;5054719;28;20054;-81
2021/12/13 04:27:41;;;;;;;164.40;79.25;;;;;;;0.78;100.00;100434.34;5054306;28;20578;-81
2021/12/13 04:30:38;;;;;;;146.52;76.32;;;;;;;0.77;100.00;100437.78;5053191;28;20040;-81
2021/12/13 04:33:08;;;;;;;133.52;72.93;;;;;;;0.58;100.00;100407.72;5054404;28;20037;-81
2021/12/13 04:35:35;;;;;;;111.32;62.95;;;;;;;0.78;100.00;100444.59;5054415;28;20373;-81
2021/12/13 04:38:03;;;;;;;120.28;69.45;;;;;;;0.67;100.00;100431.72;5054471;28;20297;-81
2021/12/13 04:40:40;;;;;;;125.75;70.43;;;;;;;0.75;100.00;100440.31;5052928;28;20472;-81
2021/12/13 04:43:11;;;;;;;130.63;71.70;;;;;;;0.73;100.00;100434.31;5054435;28;20358;-81
2021/12/13 04:45:38;;;;;;;;;;;;;;;0.78;100.00;100444.59;5054262;28;20481;-80
2021/12/13 04:48:18;;;;;;;120.35;71.75;;;;;;;0.73;100.00;100442.03;5054422;28;20379;-81
2021/12/13 04:50:56;;;;;;;115.05;69.47;;;;;;;0.70;100.00;100441.13;5052901;28;20025;-81
2021/12/13 04:53:26;;;;;;;121.07;70.57;;;;;;;0.70;100.00;100436.00;5053861;28;20083;-81
2021/12/13 04:55:54;;;;;;;163.88;82.28;;;;;;;0.62;100.00;100428.25;5054269;28;20419;-81
2021/12/13 04:58:20;;;;;;;147.10;77.05;;;;;;;0.74;100.00;100445.44;5054255;28;20037;-80
2021/12/13 05:00:51;;;;;;;151.73;80.50;;;;;;;0.77;100.00;100452.31;5054065;28;20539;-80
2021/12/13 05:03:20;;;;;;;126.10;67.65;;;;;;;0.64;100.00;100439.41;5054088;28;20109;-80
2021/12/13 05:05:46;;;;;;;119.57;67.18;;;;;;;0.67;100.00;100444.53;5053822;28;20373;-80
2021/12/13 05:08:14;;;;;;;121.25;72.00;;;;;;;0.70;100.00;100446.25;5053850;28;20035;-80
2021/12/13 05:10:43;;;;;;;120.55;68.47;;;;;;;0.60;100.00;100435.09;5053144;28;20021;-80
2021/12/13 05:13:15;;;;;;;135.48;74.07;;;;;;;0.64;100.00;100434.28;5053733;28;20021;-80
2021/12/13 05:15:44;;;;;;;127.55;71.68;;;;;;;0.68;100.00;100442.84;5053720;28;20033;-80
2021/12/13 05:18:21;;;;;;;132.05;71.07;;;;;;;0.65;100.00;100448.81;5053883;28;20103;-80
2021/12/13 05:20:48;;;;;;;120.07;68.70;;;;;;;0.65;100.00;100447.94;5053591;28;20112;-80
2021/12/13 05:23:20;;;;;;;109.97;65.75;;;;;;;0.59;100.00;100442.75;5053503;28;20484;-80
2021/12/13 05:25:53;;;;;;;125.05;71.22;;;;;;;0.64;100.00;100444.53;5052668;28;20076;-80
2021/12/13 05:28:22;;;;;;;121.10;67.47;;;;;;;0.72;100.00;100449.72;5051094;28;20083;-80
2021/12/13 05:31:05;;;;;;;129.15;75.00;;;;;;;0.61;100.00;100438.53;5052493;28;20434;-80
2021/12/13 05:33:35;;;;;;;124.47;70.15;;;;;;;0.64;100.00;100439.41;5052090;28;20116;-79
2021/12/13 05:36:08;;;;;;;117.78;67.65;;;;;;;0.60;100.00;100431.69;5051431;28;20032;-79
2021/12/13 05:38:41;;;;;;;136.77;79.82;;;;;;;0.62;100.00;100440.22;5052093;28;20538;-79
2021/12/13 05:41:11;;;;;;;144.98;81.82;;;;;;;0.66;100.00;100441.97;5051070;28;20132;-79
2021/12/13 05:43:45;;;;;;;136.43;77.18;;;;;;;0.74;100.00;100464.25;5051914;28;20571;-80
2021/12/13 05:46:24;;;;;;;122.80;72.22;;;;;;;0.52;100.00;100429.06;5052316;28;20029;-79
2021/12/13 05:48:55;;;;;;;125.10;73.57;;;;;;;0.72;100.00;100458.25;5052383;28;20025;-80
2021/12/13 05:51:32;;;;;;;122.68;73.40;;;;;;;0.64;100.00;100446.25;5050635;28;20021;-80
2021/12/13 05:54:05;;;;;;;140.88;80.72;;;;;;;0.65;100.00;100450.50;5052162;28;20111;-80
2021/12/13 05:56:47;;;;;;;133.25;74.75;;;;;;;0.76;100.00;100471.97;5050715;28;20388;-80
2021/12/13 05:59:19;;;;;;;135.00;77.05;;;;;;;0.75;100.00;100467.66;5052822;28;20063;-79
2021/12/13 06:02:10;;;;;;;137.32;75.60;;;;;;;0.79;100.00;100477.09;5050842;28;20392;-80
2021/12/13 06:04:54;;;;;;;135.15;77.88;;;;;;;0.75;100.00;100465.94;5051458;28;20025;-80
2021/12/13 06:07:26;;;;;;;126.65;75.82;;;;;;;0.81;100.00;100474.56;5050392;28;20032;-80
2021/12/13 06:10:18;;;;;;;124.07;70.50;;;;;;;0.81;100.00;100479.69;5051916;28;20037;-80
2021/12/13 06:12:54;;;;;;;125.13;68.95;;;;;;;0.78;100.00;100477.09;5070007;28;20039;-81
2021/12/13 06:15:27;;;;;;;137.90;77.97;;;;;;;0.66;100.00;100459.91;5069188;28;20036;-80
2021/12/13 06:18:05;;;;;;;131.80;74.93;;;;;;;0.64;100.00;100459.91;5068944;28;20043;-80
2021/12/13 06:20:33;;;;;;;139.20;76.53;;;;;;;0.76;100.00;100487.34;5051836;28;20154;-80
2021/12/13 06:23:06;;;;;;;141.25;79.30;;;;;;;0.72;100.00;100475.34;5068157;28;20043;-80
2021/12/13 06:25:32;;;;;;;154.93;84.68;;;;;;;0.82;100.00;100499.34;5069050;28;20430;-79
2021/12/13 06:27:59;;;;;;;164.48;83.50;;;;;;;0.62;100.00;100458.19;5069739;28;20093;-80
2021/12/13 06:30:34;;;;;;;158.70;81.35;;;;;;;0.67;100.00;100475.28;5069503;28;20045;-81
2021/12/13 06:33:00;;;;;;;153.98;78.80;;;;;;;0.79;100.00;100495.03;5070127;28;20079;-81
2021/12/13 06:35:43;;;;;;;147.32;76.18;;;;;;;0.61;100.00;100465.00;5069453;28;20036;-81
2021/12/13 06:38:41;;;;;;;166.15;87.97;;;;;;;0.81;100.00;100492.50;5069641;28;20051;-81
2021/12/13 06:41:16;;;;;;;142.48;77.25;;;;;;;0.83;100.00;100495.91;5069338;28;20036;-81
2021/12/13 06:43:53;;;;;;;151.25;83.70;;;;;;;0.86;100.00;100493.38;5051318;28;20135;-81
2021/12/13 06:46:27;;;;;;;158.57;84.40;;;;;;;0.87;100.00;100502.78;5068393;28;20522;-81
2021/12/13 06:49:05;;;;;;;133.85;75.85;;;;;;;0.84;100.00;100498.47;5072458;28;20112;-80
2021/12/13 06:51:56;;;;;;;131.48;75.10;;;;;;;0.87;100.00;100503.63;5071156;28;20032;-80
2021/12/13 06:54:27;;;;;;;126.28;71.05;;;;;;;0.86;100.00;100513.91;5052391;28;20531;-80
2021/12/13 06:56:59;;;;;;;135.77;74.15;;;;;;;0.74;100.00;100489.88;5069138;28;20052;-80
2021/12/13 06:59:27;;;;;;;133.23;72.13;;;;;;;0.75;100.00;100496.72;5052285;28;20486;-80
2021/12/13 07:02:01;;;;;;;133.73;74.13;;;;;;;0.85;100.00;100513.03;5052509;28;20511;-80
2021/12/13 07:04:37;;;;;;;152.05;82.00;;;;;;;0.75;100.00;100494.16;5052098;28;20039;-80
2021/12/13 07:07:11;;;;;;;183.40;97.30;;;;;;;0.79;100.00;100495.03;5069267;28;20034;-80
2021/12/13 07:09:38;;;;;;;238.07;119.57;;;;;;;0.82;100.00;100499.34;5052213;28;20416;-80
2021/12/13 07:12:14;;;;;;;190.93;96.70;;;;;;;0.89;100.00;100524.19;5068242;28;20036;-80
2021/12/13 07:14:39;;;;;;;178.95;95.07;;;;;;;0.95;100.00;100526.78;5068097;28;20633;-80
2021/12/13 07:17:34;;;;;;;157.65;84.88;;;;;;;0.94;100.00;100514.81;5051435;28;20043;-80
2021/12/13 07:20:13;;;;;;;147.90;80.72;;;;;;;0.94;100.00;100520.78;5008831;28;20038;-80
2021/12/13 07:22:42;;;;;;;150.93;82.63;;;;;;;1.01;100.00;100534.50;5009130;28;20440;-81
2021/12/13 07:25:17;;;;;;;159.75;83.15;;;;;;;0.91;100.00;100520.75;5006892;28;20140;-81
2021/12/13 07:27:49;;;;;;;159.88;87.00;;;;;;;0.95;100.00;100525.06;5009507;28;20048;-81
2021/12/13 07:30:18;;;;;;;179.32;90.72;;;;;;;1.09;100.00;100540.53;5011806;28;20129;-80
2021/12/13 07:32:54;;;;;;;184.85;95.90;;;;;;;1.04;100.00;100542.22;5029257;28;20437;-80
2021/12/13 07:35:22;;;;;;;164.50;87.88;;;;;;;1.11;100.00;100548.25;5032891;28;20029;-80
2021/12/13 07:37:55;;;;;;;146.65;82.00;;;;;;;1.17;100.00;100550.84;5032843;28;20037;-81
2021/12/13 07:40:46;;;;;;;148.10;77.22;;;;;;;1.23;100.00;100545.78;5032639;28;20087;-81
2021/12/13 07:43:18;;;;;;;141.65;75.57;;;;;;;1.28;100.00;100553.50;5016496;28;20124;-81
2021/12/13 07:46:16;;;;;;;137.35;73.55;;;;;;;1.18;100.00;100537.16;5031736;28;20459;-81
2021/12/13 07:48:42;;;;;;;134.30;74.22;;;;;;;1.32;100.00;100561.22;5032882;28;20499;-81
2021/12/13 07:51:31;;;;;;;140.43;75.80;;;;;;;1.36;100.00;100567.22;5032712;28;20041;-80
2021/12/13 07:53:56;;;;;;;130.23;72.13;;;;;;;1.26;100.00;100548.34;5032730;28;20033;-80
2021/12/13 07:56:39;;;;;;;137.15;72.63;;;;;;;1.35;100.00;100555.22;5046591;28;20048;-80
2021/12/13 07:59:34;;;;;;;144.50;74.40;;;;;;;1.40;100.00;100567.25;5074355;28;20074;-80
2021/12/13 08:02:15;;;;;;;138.82;72.80;;;;;;;1.43;100.00;100571.53;5074196;28;20020;-80
2021/12/13 08:04:47;;;;;;;142.15;72.82;;;;;;;1.45;100.00;100568.13;5054703;28;20036;-80
2021/12/13 08:07:34;;;;;;;142.43;74.22;;;;;;;1.48;100.00;100568.16;5074707;28;20086;-80
2021/12/13 08:10:06;;;;;;;153.20;75.53;;;;;;;1.53;100.00;100564.75;5055396;28;20047;-80
2021/12/13 08:12:48;;;;;;;146.45;75.68;;;;;;;1.55;100.00;100571.59;5079152;28;20040;-80
2021/12/13 08:15:22;;;;;;;156.13;77.35;;;;;;;1.60;100.00;100567.34;5074359;28;20068;-80
2021/12/13 08:17:57;;;;;;;149.70;78.70;;;;;;;1.61;100.00;100560.50;5092472;28;20090;-79
2021/12/13 08:20:40;;;;;;;158.43;81.53;;;;;;;1.53;100.00;100549.34;5077549;28;20036;-78
2021/12/13 08:23:14;;;;;;;149.48;79.63;;;;;;;1.72;100.00;100571.66;5072379;28;20485;-78
2021/12/13 08:25:45;;;;;;;154.05;80.82;;;;;;;1.75;100.00;100571.69;5054823;28;20028;-78
2021/12/13 08:28:19;;;;;;;154.23;77.50;;;;;;;1.65;100.00;100544.25;5072048;28;20105;-79
2021/12/13 08:30:59;;;;;;;145.65;77.32;;;;;;;1.87;100.00;100576.03;5040132;28;20573;-79
2021/12/13 08:33:46;;;;;;;163.47;85.43;;;;;;;1.71;100.00;100550.25;5071707;28;20033;-78
2021/12/13 08:36:13;;;;;;;156.50;84.93;;;;;;;1.94;100.00;100580.34;5072216;28;20770;-79
2021/12/13 08:38:39;;;;;;;167.18;89.68;;;;;;;1.98;100.00;100584.59;5071717;28;20025;-79
2021/12/13 08:41:27;;;;;;;173.02;89.97;;;;;;;1.93;100.00;100569.16;5071675;28;20141;-79
2021/12/13 08:44:03;;;;;;;178.85;93.03;;;;;;;1.98;100.00;100579.47;5011212;28;20042;-79
2021/12/13 08:46:51;;;;;;;177.80;96.55;;;;;;;2.14;100.00;100593.22;5010639;28;20486;-78
2021/12/13 08:49:22;;;;;;;203.45;106.22;;;;;;;2.05;100.00;100575.22;4992257;28;20469;-79
2021/12/13 08:52:07;;;;;;;205.55;105.65;;;;;;;2.09;100.00;100575.22;4992457;28;20046;-79
2021/12/13 08:54:47;;;;;;;204.57;108.45;;;;;;;2.25;100.00;100601.81;4992170;28;20046;-79
2021/12/13 08:57:40;;;;;;;219.93;115.75;;;;;;;2.30;100.00;100600.13;4992186;28;20041;-79
2021/12/13 09:00:19;;;;;;;206.77;111.97;;;;;;;2.30;100.00;100602.69;4992068;28;20035;-79
2021/12/13 09:02:56;;;;;;;199.35;110.43;;;;;;;2.28;100.00;100596.69;4992180;28;20057;-79
2021/12/13 09:05:28;;;;;;;196.10;104.85;;;;;;;2.17;100.00;100583.81;4991764;28;20037;-79
2021/12/13 09:08:00;;;;;;;189.93;105.03;;;;;;;2.24;100.00;100595.84;4992059;28;20130;-79
2021/12/13 09:11:04;;;;;;;190.50;103.35;;;;;;;2.24;100.00;100597.56;4991724;28;20104;-79
2021/12/13 09:13:44;;;;;;;178.32;99.13;;;;;;;2.22;100.00;100599.25;4972139;28;20046;-78
2021/12/13 09:16:17;;;;;;;178.25;97.18;;;;;;;2.22;100.00;100601.81;4972388;28;20114;-78
2021/12/13 09:18:43;;;;;;;175.35;95.50;;;;;;;2.23;100.00;100601.84;4972121;28;20502;-79
2021/12/13 09:21:09;;;;;;;172.75;94.20;;;;;;;2.26;100.00;100611.25;5020330;28;20043;-80
2021/12/13 09:23:47;;;;;;;159.15;87.25;;;;;;;2.28;100.00;100611.28;5050818;28;20397;-79
2021/12/13 09:26:21;;;;;;;152.73;83.82;;;;;;;2.31;100.00;100613.84;5034541;28;20037;-79
2021/12/13 09:29:01;;;;;;;151.40;80.43;;;;;;;2.31;100.00;100611.25;5018365;28;20041;-79
2021/12/13 09:31:43;;;;;;;142.07;76.75;;;;;;;2.32;100.00;100607.81;5034208;28;20393;-80
2021/12/13 09:34:16;;;;;;;140.27;71.65;;;;;;;2.35;100.00;100605.28;5051158;28;20044;-80
2021/12/13 09:36:46;;;;;;;134.68;70.82;;;;;;;2.23;100.00;100585.53;5050549;28;20033;-80
2021/12/13 09:39:17;;;;;;;;;;;;;;;2.40;100.00;100607.00;5051084;28;20103;-80
2021/12/13 09:41:58;;;;;;;129.75;62.20;;;;;;;2.42;100.00;100610.44;5050344;28;20482;-79
2021/12/13 09:44:40;;;;;;;115.75;60.33;;;;;;;2.29;100.00;100590.69;5059413;28;20049;-79
2021/12/13 09:47:18;;;;;;;115.03;58.53;;;;;;;2.42;100.00;100609.59;5070536;28;20060;-78
2021/12/13 09:50:07;;;;;;;112.20;57.47;;;;;;;2.43;100.00;100607.00;5070100;28;20032;-78
2021/12/13 09:52:48;;;;;;;104.85;54.80;;;;;;;2.39;100.00;100597.56;5016383;28;20579;-80
2021/12/13 09:55:41;;;;;;;96.38;55.90;;;;;;;2.55;100.00;100619.03;5050398;28;20095;-81
2021/12/13 09:58:17;;;;;;;113.95;60.33;;;;;;;2.57;100.00;100617.34;5050119;28;20036;-80
2021/12/13 10:00:45;;;;;;;119.55;66.05;;;;;;;2.64;100.00;100618.19;5032460;28;20049;-80
2021/12/13 10:03:25;;;;;;;111.57;62.88;;;;;;;2.66;100.00;100619.06;5047405;28;20096;-80
2021/12/13 10:05:57;;;;;;;101.85;60.58;;;;;;;2.62;100.00;100612.19;5047432;28;20037;-80
2021/12/13 10:08:27;;;;;;;;;;;;;;;2.69;100.00;100614.75;5033447;28;20041;-80
2021/12/13 10:11:02;;;;;;;119.13;65.53;;;;;;;2.57;100.00;100598.44;5050082;28;20407;-80
2021/12/13 10:13:37;;;;;;;129.88;73.40;;;;;;;2.62;100.00;100610.47;5049785;28;20037;-79
2021/12/13 10:16:18;;;;;;;127.88;72.88;;;;;;;2.57;100.00;100593.31;5049803;28;20079;-79
2021/12/13 10:18:46;;;;;;;139.13;73.68;;;;;;;2.72;100.00;100612.19;5012795;28;20084;-80
2021/12/13 10:21:26;;;;;;;136.80;70.80;;;;;;;2.78;100.00;100616.47;5029816;28;20627;-80
2021/12/13 10:23:59;;;;;;;138.90;73.67;;;;;;;2.78;100.00;100608.75;5013285;28;20099;-82
2021/12/13 10:26:31;;;;;;;131.30;70.18;;;;;;;2.71;100.00;100599.34;5029539;28;20384;-80
2021/12/13 10:29:00;;;;;;;133.77;71.72;;;;;;;2.59;100.00;100571.88;5029665;28;20068;-81
2021/12/13 10:31:40;;;;;;;133.23;72.10;;;;;;;2.85;100.00;100613.03;5029521;28;20088;-80
2021/12/13 10:34:11;;;;;;;129.57;71.40;;;;;;;2.90;100.00;100613.03;5013250;28;20509;-78
2021/12/13 10:36:47;;;;;;;131.85;72.00;;;;;;;2.80;100.00;100604.47;5029411;28;20041;-79
2021/12/13 10:39:20;;;;;;;188.77;98.10;;;;;;;2.82;100.00;100596.75;5029651;28;20501;-78
2021/12/13 10:41:49;;;;;;;205.07;105.13;;;;;;;2.94;100.00;100612.19;5029325;28;20026;-79
2021/12/13 10:44:30;;;;;;;165.15;83.65;;;;;;;2.88;100.00;100597.63;5029071;28;20058;-79
2021/12/13 10:47:08;;;;;;;263.73;119.53;;;;;;;2.97;100.00;100607.91;5029586;28;20124;-79
2021/12/13 10:49:37;;;;;;;304.27;130.25;;;;;;;2.98;100.00;100612.19;5005432;28;20426;-80
2021/12/13 10:52:18;;;;;;;254.93;114.20;;;;;;;2.98;100.00;100604.47;4990288;28;20049;-79
2021/12/13 10:54:49;;;;;;;201.20;90.38;;;;;;;2.99;100.00;100593.34;4989813;28;20038;-80
2021/12/13 10:57:22;;;;;;;149.02;68.90;;;;;;;3.09;100.00;100591.59;4990094;28;20089;-80
2021/12/13 10:59:49;;;;;;;107.22;55.95;;;;;;;3.21;100.00;100598.47;4993122;28;20392;-79
2021/12/13 11:02:19;;;;;;;73.47;40.15;;;;;;;3.24;100.00;100589.03;5013819;28;20488;-80
2021/12/13 11:05:12;;;;;;;63.90;35.10;;;;;;;3.39;100.00;100595.00;5068390;28;20519;-80
2021/12/13 11:07:39;;;;;;;55.17;31.42;;;;;;;3.45;100.00;100598.38;5065896;28;20532;-80
2021/12/13 11:10:08;;;;;;;52.58;31.25;;;;;;;3.38;100.00;100586.41;5068880;28;20060;-80
2021/12/13 11:12:47;;;;;;;57.65;30.08;;;;;;;3.39;100.00;100582.97;5051734;28;20032;-81
2021/12/13 11:15:26;;;;;;;50.42;30.23;;;;;;;3.43;100.00;100588.97;5068742;28;20111;-77
2021/12/13 11:17:54;;;;;;;56.13;29.98;;;;;;;3.44;100.00;100588.94;5069298;28;20032;-78
2021/12/13 11:20:32;;;;;;;104.43;49.10;;;;;;;3.57;100.00;100594.06;5069315;28;20032;-79
2021/12/13 11:22:59;;;;;;;74.72;39.40;;;;;;;3.55;100.00;100582.94;5069310;28;20496;-79
2021/12/13 11:25:30;;;;;;;131.77;56.80;;;;;;;3.63;100.00;100591.50;5052128;28;20036;-79
2021/12/13 11:27:56;;;;;;;116.55;49.03;;;;;;;3.65;100.00;100590.63;5068728;28;20028;-79
2021/12/13 11:30:27;;;;;;;90.60;41.28;;;;;;;3.68;100.00;100595.75;5051474;28;20094;-81
2021/12/13 11:32:58;;;;;;;70.10;33.90;;;;;;;3.74;100.00;100606.03;5051535;28;20040;-78
2021/12/13 11:36:00;;;;;;;72.07;36.83;;;;;;;3.77;100.00;100612.91;5051418;28;20108;-78
2021/12/13 11:38:28;;;;;;;61.75;35.72;;;;;;;3.77;100.00;100610.34;5051519;28;20021;-79
2021/12/13 11:41:22;;;;;;;53.88;32.35;;;;;;;3.78;100.00;100599.16;5051503;28;20025;-80
2021/12/13 11:44:12;;;;;;;50.05;29.35;;;;;;;3.78;100.00;100604.31;5051243;28;20040;-81
2021/12/13 11:46:37;;;;;;;45.13;26.98;;;;;;;3.78;100.00;100604.31;5050937;28;20535;-81
2021/12/13 11:49:21;;;;;;;47.67;27.23;;;;;;;3.78;100.00;100599.16;5051429;28;20052;-78
2021/12/13 11:52:24;;;;;;;44.15;27.23;;;;;;;3.78;100.00;100604.31;5051314;28;20040;-78